sensor_id;sensor_type;location;lat;lon;timestamp;P1;durP1;ratioP1;P2;durP2;ratioP2
10659;SDS011;5378;53.206;13.316;2023-09-19T00:00:24;5.20;;;3.43;;
10659;SDS011;5378;53.206;13.316;2023-09-19T00:03:14;3.43;;;2.60;;
10659;SDS011;5378;53.206;13.316;2023-09-19T00:06:01;6.43;;;3.30;;
10659;SDS011;5378;53.206;13.316;2023-09-19T00:08:48;8.90;;;2.93;;
10659;SDS011;5378;53.206;13.316;2023-09-19T00:11:35;5.67;;;3.77;;
10659;SDS011;5378;53.206;13.316;2023-09-19T00:14:24;4.93;;;2.53;;
10659;SDS011;5378;53.206;13.316;2023-09-19T00:17:12;5.07;;;2.77;;
10659;SDS011;5378;53.206;13.316;2023-09-19T00:20:00;4.70;;;2.63;;
10659;SDS011;5378;53.206;13.316;2023-09-19T00:22:58;2.53;;;2.33;;
10659;SDS011;5378;53.206;13.316;2023-09-19T00:25:53;4.90;;;3.07;;
10659;SDS011;5378;53.206;13.316;2023-09-19T00:28:45;4.27;;;2.80;;
10659;SDS011;5378;53.206;13.316;2023-09-19T00:31:31;4.17;;;2.33;;
10659;SDS011;5378;53.206;13.316;2023-09-19T00:34:19;5.43;;;2.90;;
10659;SDS011;5378;53.206;13.316;2023-09-19T00:37:07;6.03;;;3.40;;
10659;SDS011;5378;53.206;13.316;2023-09-19T00:39:57;14.80;;;3.23;;
10659;SDS011;5378;53.206;13.316;2023-09-19T00:42:44;6.70;;;2.63;;
10659;SDS011;5378;53.206;13.316;2023-09-19T00:45:32;6.80;;;3.03;;
10659;SDS011;5378;53.206;13.316;2023-09-19T00:48:21;5.03;;;2.57;;
10659;SDS011;5378;53.206;13.316;2023-09-19T00:51:10;5.93;;;3.60;;
10659;SDS011;5378;53.206;13.316;2023-09-19T00:54:01;5.70;;;2.47;;
10659;SDS011;5378;53.206;13.316;2023-09-19T00:56:50;8.20;;;2.33;;
10659;SDS011;5378;53.206;13.316;2023-09-19T00:59:40;4.53;;;2.70;;
10659;SDS011;5378;53.206;13.316;2023-09-19T01:02:28;14.60;;;2.80;;
10659;SDS011;5378;53.206;13.316;2023-09-19T01:05:15;9.80;;;2.87;;
10659;SDS011;5378;53.206;13.316;2023-09-19T01:08:04;12.33;;;3.03;;
10659;SDS011;5378;53.206;13.316;2023-09-19T01:10:55;24.70;;;2.77;;
10659;SDS011;5378;53.206;13.316;2023-09-19T01:13:48;4.07;;;2.80;;
10659;SDS011;5378;53.206;13.316;2023-09-19T01:16:44;7.90;;;2.73;;
10659;SDS011;5378;53.206;13.316;2023-09-19T01:19:45;4.67;;;2.90;;
10659;SDS011;5378;53.206;13.316;2023-09-19T01:22:56;7.73;;;2.80;;
10659;SDS011;5378;53.206;13.316;2023-09-19T01:29:13;8.93;;;3.00;;
10659;SDS011;5378;53.206;13.316;2023-09-19T01:32:16;5.60;;;3.00;;
10659;SDS011;5378;53.206;13.316;2023-09-19T01:35:07;4.77;;;2.90;;
10659;SDS011;5378;53.206;13.316;2023-09-19T01:37:58;7.57;;;3.10;;
10659;SDS011;5378;53.206;13.316;2023-09-19T01:40:48;3.80;;;2.33;;
10659;SDS011;5378;53.206;13.316;2023-09-19T01:43:44;5.97;;;2.57;;
10659;SDS011;5378;53.206;13.316;2023-09-19T01:46:37;6.40;;;2.40;;
10659;SDS011;5378;53.206;13.316;2023-09-19T01:49:30;6.13;;;2.20;;
10659;SDS011;5378;53.206;13.316;2023-09-19T01:52:24;6.30;;;2.63;;
10659;SDS011;5378;53.206;13.316;2023-09-19T01:55:17;3.33;;;2.03;;
10659;SDS011;5378;53.206;13.316;2023-09-19T01:58:06;10.03;;;2.73;;
10659;SDS011;5378;53.206;13.316;2023-09-19T02:01:00;9.27;;;2.07;;
10659;SDS011;5378;53.206;13.316;2023-09-19T02:03:49;9.03;;;2.10;;
10659;SDS011;5378;53.206;13.316;2023-09-19T02:06:40;2.63;;;1.83;;
10659;SDS011;5378;53.206;13.316;2023-09-19T02:09:28;10.57;;;2.93;;
10659;SDS011;5378;53.206;13.316;2023-09-19T02:12:15;3.90;;;2.20;;
10659;SDS011;5378;53.206;13.316;2023-09-19T02:15:02;5.60;;;2.90;;
10659;SDS011;5378;53.206;13.316;2023-09-19T02:17:52;5.33;;;2.80;;
10659;SDS011;5378;53.206;13.316;2023-09-19T02:20:42;18.67;;;3.47;;
10659;SDS011;5378;53.206;13.316;2023-09-19T02:23:31;5.70;;;2.60;;
10659;SDS011;5378;53.206;13.316;2023-09-19T02:26:18;3.73;;;2.77;;
10659;SDS011;5378;53.206;13.316;2023-09-19T02:29:05;7.63;;;2.47;;
10659;SDS011;5378;53.206;13.316;2023-09-19T02:31:54;7.20;;;2.30;;
10659;SDS011;5378;53.206;13.316;2023-09-19T02:34:41;15.93;;;3.27;;
10659;SDS011;5378;53.206;13.316;2023-09-19T02:37:30;6.50;;;2.30;;
10659;SDS011;5378;53.206;13.316;2023-09-19T02:40:20;4.83;;;2.07;;
10659;SDS011;5378;53.206;13.316;2023-09-19T02:43:07;5.73;;;2.70;;
10659;SDS011;5378;53.206;13.316;2023-09-19T02:45:54;4.10;;;2.37;;
10659;SDS011;5378;53.206;13.316;2023-09-19T02:48:42;6.93;;;2.50;;
10659;SDS011;5378;53.206;13.316;2023-09-19T02:51:29;3.47;;;2.10;;
10659;SDS011;5378;53.206;13.316;2023-09-19T02:54:16;6.47;;;2.67;;
10659;SDS011;5378;53.206;13.316;2023-09-19T02:57:04;3.00;;;2.40;;
10659;SDS011;5378;53.206;13.316;2023-09-19T02:59:53;6.77;;;2.37;;
10659;SDS011;5378;53.206;13.316;2023-09-19T03:02:40;2.87;;;1.80;;
10659;SDS011;5378;53.206;13.316;2023-09-19T03:05:28;5.43;;;1.73;;
10659;SDS011;5378;53.206;13.316;2023-09-19T03:08:16;4.57;;;2.20;;
10659;SDS011;5378;53.206;13.316;2023-09-19T03:11:05;5.50;;;2.57;;
10659;SDS011;5378;53.206;13.316;2023-09-19T03:13:59;6.87;;;2.17;;
10659;SDS011;5378;53.206;13.316;2023-09-19T03:16:46;8.03;;;2.67;;
10659;SDS011;5378;53.206;13.316;2023-09-19T03:19:33;5.73;;;2.33;;
10659;SDS011;5378;53.206;13.316;2023-09-19T03:22:23;4.13;;;1.80;;
10659;SDS011;5378;53.206;13.316;2023-09-19T03:25:10;3.23;;;2.27;;
10659;SDS011;5378;53.206;13.316;2023-09-19T03:28:02;5.00;;;2.33;;
10659;SDS011;5378;53.206;13.316;2023-09-19T03:31:02;3.60;;;1.70;;
10659;SDS011;5378;53.206;13.316;2023-09-19T03:33:52;5.33;;;2.87;;
10659;SDS011;5378;53.206;13.316;2023-09-19T03:36:39;2.00;;;1.60;;
10659;SDS011;5378;53.206;13.316;2023-09-19T03:39:27;6.40;;;2.97;;
10659;SDS011;5378;53.206;13.316;2023-09-19T03:42:13;5.00;;;1.50;;
10659;SDS011;5378;53.206;13.316;2023-09-19T03:45:00;2.80;;;1.73;;
10659;SDS011;5378;53.206;13.316;2023-09-19T03:47:51;6.87;;;2.07;;
10659;SDS011;5378;53.206;13.316;2023-09-19T03:50:40;4.57;;;1.90;;
10659;SDS011;5378;53.206;13.316;2023-09-19T03:53:29;6.50;;;1.60;;
10659;SDS011;5378;53.206;13.316;2023-09-19T03:56:16;2.83;;;1.50;;
10659;SDS011;5378;53.206;13.316;2023-09-19T03:59:04;1.33;;;1.23;;
10659;SDS011;5378;53.206;13.316;2023-09-19T04:01:50;1.20;;;1.03;;
10659;SDS011;5378;53.206;13.316;2023-09-19T04:04:42;1.67;;;1.23;;
10659;SDS011;5378;53.206;13.316;2023-09-19T04:07:29;2.83;;;1.60;;
10659;SDS011;5378;53.206;13.316;2023-09-19T04:10:16;2.20;;;1.07;;
10659;SDS011;5378;53.206;13.316;2023-09-19T04:13:03;4.40;;;1.33;;
10659;SDS011;5378;53.206;13.316;2023-09-19T04:15:50;1.57;;;1.27;;
10659;SDS011;5378;53.206;13.316;2023-09-19T04:18:37;3.13;;;1.40;;
10659;SDS011;5378;53.206;13.316;2023-09-19T04:21:27;2.23;;;1.10;;
10659;SDS011;5378;53.206;13.316;2023-09-19T04:24:14;7.60;;;1.50;;
10659;SDS011;5378;53.206;13.316;2023-09-19T04:27:01;2.27;;;1.90;;
10659;SDS011;5378;53.206;13.316;2023-09-19T04:29:49;6.57;;;1.43;;
10659;SDS011;5378;53.206;13.316;2023-09-19T04:32:36;11.27;;;1.77;;
10659;SDS011;5378;53.206;13.316;2023-09-19T04:35:25;2.37;;;1.23;;
10659;SDS011;5378;53.206;13.316;2023-09-19T04:38:13;7.03;;;1.47;;
10659;SDS011;5378;53.206;13.316;2023-09-19T04:41:00;3.70;;;1.60;;
10659;SDS011;5378;53.206;13.316;2023-09-19T04:43:48;4.33;;;2.03;;
10659;SDS011;5378;53.206;13.316;2023-09-19T04:46:36;4.70;;;1.97;;
10659;SDS011;5378;53.206;13.316;2023-09-19T04:49:23;3.60;;;1.93;;
10659;SDS011;5378;53.206;13.316;2023-09-19T04:52:10;3.03;;;1.70;;
10659;SDS011;5378;53.206;13.316;2023-09-19T04:54:58;3.87;;;1.67;;
10659;SDS011;5378;53.206;13.316;2023-09-19T04:57:45;3.30;;;1.97;;
10659;SDS011;5378;53.206;13.316;2023-09-19T05:00:33;5.43;;;1.53;;
10659;SDS011;5378;53.206;13.316;2023-09-19T05:03:20;3.43;;;1.50;;
10659;SDS011;5378;53.206;13.316;2023-09-19T05:06:07;3.73;;;1.90;;
10659;SDS011;5378;53.206;13.316;2023-09-19T05:08:55;2.87;;;1.90;;
10659;SDS011;5378;53.206;13.316;2023-09-19T05:11:43;2.20;;;1.67;;
10659;SDS011;5378;53.206;13.316;2023-09-19T05:14:30;3.17;;;2.00;;
10659;SDS011;5378;53.206;13.316;2023-09-19T05:17:17;5.23;;;2.30;;
10659;SDS011;5378;53.206;13.316;2023-09-19T05:20:05;4.40;;;2.00;;
10659;SDS011;5378;53.206;13.316;2023-09-19T05:23:09;4.23;;;2.00;;
10659;SDS011;5378;53.206;13.316;2023-09-19T05:25:57;3.23;;;1.80;;
10659;SDS011;5378;53.206;13.316;2023-09-19T05:28:46;5.83;;;2.30;;
10659;SDS011;5378;53.206;13.316;2023-09-19T05:31:34;3.63;;;2.07;;
10659;SDS011;5378;53.206;13.316;2023-09-19T05:34:21;4.63;;;2.00;;
10659;SDS011;5378;53.206;13.316;2023-09-19T05:37:10;2.50;;;2.30;;
10659;SDS011;5378;53.206;13.316;2023-09-19T05:39:57;3.13;;;1.53;;
10659;SDS011;5378;53.206;13.316;2023-09-19T05:42:44;15.10;;;2.70;;
10659;SDS011;5378;53.206;13.316;2023-09-19T05:45:33;5.90;;;2.17;;
10659;SDS011;5378;53.206;13.316;2023-09-19T05:48:20;6.47;;;2.40;;
10659;SDS011;5378;53.206;13.316;2023-09-19T05:51:11;4.57;;;1.90;;
10659;SDS011;5378;53.206;13.316;2023-09-19T05:53:58;5.23;;;1.73;;
10659;SDS011;5378;53.206;13.316;2023-09-19T05:56:45;2.83;;;1.70;;
10659;SDS011;5378;53.206;13.316;2023-09-19T05:59:32;4.03;;;2.23;;
10659;SDS011;5378;53.206;13.316;2023-09-19T06:02:21;3.90;;;1.87;;
10659;SDS011;5378;53.206;13.316;2023-09-19T06:05:08;6.17;;;2.10;;
10659;SDS011;5378;53.206;13.316;2023-09-19T06:07:56;11.43;;;2.40;;
10659;SDS011;5378;53.206;13.316;2023-09-19T06:10:46;6.60;;;2.27;;
10659;SDS011;5378;53.206;13.316;2023-09-19T06:13:34;10.37;;;2.50;;
10659;SDS011;5378;53.206;13.316;2023-09-19T06:16:21;5.30;;;2.53;;
10659;SDS011;5378;53.206;13.316;2023-09-19T06:19:10;9.17;;;2.87;;
10659;SDS011;5378;53.206;13.316;2023-09-19T06:21:57;7.43;;;2.43;;
10659;SDS011;5378;53.206;13.316;2023-09-19T06:24:45;4.17;;;1.90;;
10659;SDS011;5378;53.206;13.316;2023-09-19T06:27:33;5.43;;;2.13;;
10659;SDS011;5378;53.206;13.316;2023-09-19T06:30:22;8.90;;;2.50;;
10659;SDS011;5378;53.206;13.316;2023-09-19T06:33:10;8.07;;;2.07;;
10659;SDS011;5378;53.206;13.316;2023-09-19T06:35:59;3.80;;;2.50;;
10659;SDS011;5378;53.206;13.316;2023-09-19T06:38:50;4.10;;;1.50;;
10659;SDS011;5378;53.206;13.316;2023-09-19T06:41:37;2.77;;;1.60;;
10659;SDS011;5378;53.206;13.316;2023-09-19T06:44:29;4.60;;;1.73;;
10659;SDS011;5378;53.206;13.316;2023-09-19T06:47:17;2.70;;;1.97;;
10659;SDS011;5378;53.206;13.316;2023-09-19T06:50:05;6.40;;;1.83;;
10659;SDS011;5378;53.206;13.316;2023-09-19T06:52:59;3.87;;;1.63;;
10659;SDS011;5378;53.206;13.316;2023-09-19T06:55:47;4.67;;;1.87;;
10659;SDS011;5378;53.206;13.316;2023-09-19T06:58:34;4.00;;;1.83;;
10659;SDS011;5378;53.206;13.316;2023-09-19T07:01:22;8.77;;;2.17;;
10659;SDS011;5378;53.206;13.316;2023-09-19T07:04:09;4.80;;;1.93;;
10659;SDS011;5378;53.206;13.316;2023-09-19T07:06:56;5.27;;;1.70;;
10659;SDS011;5378;53.206;13.316;2023-09-19T07:09:45;5.80;;;2.07;;
10659;SDS011;5378;53.206;13.316;2023-09-19T07:12:37;5.80;;;2.50;;
10659;SDS011;5378;53.206;13.316;2023-09-19T07:15:26;5.67;;;2.10;;
10659;SDS011;5378;53.206;13.316;2023-09-19T07:18:14;4.17;;;1.80;;
10659;SDS011;5378;53.206;13.316;2023-09-19T07:21:03;3.57;;;2.20;;
10659;SDS011;5378;53.206;13.316;2023-09-19T07:23:51;5.03;;;1.80;;
10659;SDS011;5378;53.206;13.316;2023-09-19T07:26:40;4.50;;;2.10;;
10659;SDS011;5378;53.206;13.316;2023-09-19T07:29:27;5.23;;;2.17;;
10659;SDS011;5378;53.206;13.316;2023-09-19T07:32:14;4.70;;;1.87;;
10659;SDS011;5378;53.206;13.316;2023-09-19T07:35:02;1.77;;;1.47;;
10659;SDS011;5378;53.206;13.316;2023-09-19T07:37:51;2.50;;;1.63;;
10659;SDS011;5378;53.206;13.316;2023-09-19T07:40:37;9.83;;;2.03;;
10659;SDS011;5378;53.206;13.316;2023-09-19T07:43:26;4.00;;;2.10;;
10659;SDS011;5378;53.206;13.316;2023-09-19T07:46:16;8.63;;;1.57;;
10659;SDS011;5378;53.206;13.316;2023-09-19T07:49:03;7.27;;;2.33;;
10659;SDS011;5378;53.206;13.316;2023-09-19T07:51:50;5.67;;;1.73;;
10659;SDS011;5378;53.206;13.316;2023-09-19T07:54:39;11.67;;;2.23;;
10659;SDS011;5378;53.206;13.316;2023-09-19T07:57:26;2.90;;;1.63;;
10659;SDS011;5378;53.206;13.316;2023-09-19T08:00:16;5.90;;;1.47;;
10659;SDS011;5378;53.206;13.316;2023-09-19T08:03:03;2.93;;;1.53;;
10659;SDS011;5378;53.206;13.316;2023-09-19T08:05:57;7.03;;;2.10;;
10659;SDS011;5378;53.206;13.316;2023-09-19T08:08:44;7.37;;;1.70;;
10659;SDS011;5378;53.206;13.316;2023-09-19T08:11:32;4.00;;;1.70;;
10659;SDS011;5378;53.206;13.316;2023-09-19T08:14:18;1.90;;;1.70;;
10659;SDS011;5378;53.206;13.316;2023-09-19T08:17:09;9.00;;;2.03;;
10659;SDS011;5378;53.206;13.316;2023-09-19T08:19:57;6.20;;;1.63;;
10659;SDS011;5378;53.206;13.316;2023-09-19T08:22:46;3.10;;;1.43;;
10659;SDS011;5378;53.206;13.316;2023-09-19T08:25:37;3.73;;;2.60;;
10659;SDS011;5378;53.206;13.316;2023-09-19T08:28:25;4.83;;;1.30;;
10659;SDS011;5378;53.206;13.316;2023-09-19T08:31:15;3.93;;;1.50;;
10659;SDS011;5378;53.206;13.316;2023-09-19T08:34:04;4.33;;;1.60;;
10659;SDS011;5378;53.206;13.316;2023-09-19T08:36:51;3.50;;;1.27;;
10659;SDS011;5378;53.206;13.316;2023-09-19T08:39:41;5.33;;;1.60;;
10659;SDS011;5378;53.206;13.316;2023-09-19T08:42:29;12.87;;;1.37;;
10659;SDS011;5378;53.206;13.316;2023-09-19T08:45:19;4.40;;;1.30;;
10659;SDS011;5378;53.206;13.316;2023-09-19T08:48:12;2.60;;;1.60;;
10659;SDS011;5378;53.206;13.316;2023-09-19T08:51:18;4.53;;;1.77;;
10659;SDS011;5378;53.206;13.316;2023-09-19T08:54:16;4.03;;;1.70;;
10659;SDS011;5378;53.206;13.316;2023-09-19T08:57:08;3.43;;;1.47;;
10659;SDS011;5378;53.206;13.316;2023-09-19T08:59:57;6.93;;;1.80;;
10659;SDS011;5378;53.206;13.316;2023-09-19T09:02:45;5.97;;;1.57;;
10659;SDS011;5378;53.206;13.316;2023-09-19T09:05:35;10.43;;;1.20;;
10659;SDS011;5378;53.206;13.316;2023-09-19T09:08:32;4.10;;;1.87;;
10659;SDS011;5378;53.206;13.316;2023-09-19T09:11:20;5.27;;;1.90;;
10659;SDS011;5378;53.206;13.316;2023-09-19T09:14:08;3.87;;;1.57;;
10659;SDS011;5378;53.206;13.316;2023-09-19T09:16:56;2.70;;;1.50;;
10659;SDS011;5378;53.206;13.316;2023-09-19T09:19:44;2.83;;;1.70;;
10659;SDS011;5378;53.206;13.316;2023-09-19T09:22:36;4.20;;;1.40;;
10659;SDS011;5378;53.206;13.316;2023-09-19T09:25:47;7.00;;;1.83;;
10659;SDS011;5378;53.206;13.316;2023-09-19T09:28:36;4.13;;;1.20;;
10659;SDS011;5378;53.206;13.316;2023-09-19T09:31:31;5.00;;;2.10;;
10659;SDS011;5378;53.206;13.316;2023-09-19T09:34:18;5.37;;;1.57;;
10659;SDS011;5378;53.206;13.316;2023-09-19T09:37:06;6.70;;;1.53;;
10659;SDS011;5378;53.206;13.316;2023-09-19T09:40:01;4.20;;;1.57;;
10659;SDS011;5378;53.206;13.316;2023-09-19T09:43:08;5.03;;;1.80;;
10659;SDS011;5378;53.206;13.316;2023-09-19T09:46:13;4.43;;;1.70;;
10659;SDS011;5378;53.206;13.316;2023-09-19T09:49:27;6.63;;;2.13;;
10659;SDS011;5378;53.206;13.316;2023-09-19T09:52:20;4.60;;;1.70;;
10659;SDS011;5378;53.206;13.316;2023-09-19T09:55:09;4.03;;;1.80;;
10659;SDS011;5378;53.206;13.316;2023-09-19T10:01:09;3.60;;;1.60;;
10659;SDS011;5378;53.206;13.316;2023-09-19T10:04:01;3.63;;;1.17;;
10659;SDS011;5378;53.206;13.316;2023-09-19T10:06:48;6.97;;;1.67;;
10659;SDS011;5378;53.206;13.316;2023-09-19T10:09:44;4.63;;;2.20;;
10659;SDS011;5378;53.206;13.316;2023-09-19T10:12:33;6.70;;;1.67;;
10659;SDS011;5378;53.206;13.316;2023-09-19T10:15:22;6.10;;;1.50;;
10659;SDS011;5378;53.206;13.316;2023-09-19T10:18:16;5.00;;;1.60;;
10659;SDS011;5378;53.206;13.316;2023-09-19T10:21:07;2.00;;;1.50;;
10659;SDS011;5378;53.206;13.316;2023-09-19T10:23:56;3.40;;;2.17;;
10659;SDS011;5378;53.206;13.316;2023-09-19T10:26:45;7.23;;;1.40;;
10659;SDS011;5378;53.206;13.316;2023-09-19T10:29:36;4.30;;;1.40;;
10659;SDS011;5378;53.206;13.316;2023-09-19T10:32:27;1.70;;;1.40;;
10659;SDS011;5378;53.206;13.316;2023-09-19T10:35:18;3.60;;;1.77;;
10659;SDS011;5378;53.206;13.316;2023-09-19T10:38:08;6.93;;;2.13;;
10659;SDS011;5378;53.206;13.316;2023-09-19T10:40:57;6.37;;;3.30;;
10659;SDS011;5378;53.206;13.316;2023-09-19T10:43:47;10.33;;;2.47;;
10659;SDS011;5378;53.206;13.316;2023-09-19T10:46:35;6.63;;;2.97;;
10659;SDS011;5378;53.206;13.316;2023-09-19T10:49:25;3.10;;;2.10;;
10659;SDS011;5378;53.206;13.316;2023-09-19T10:52:13;3.60;;;2.40;;
10659;SDS011;5378;53.206;13.316;2023-09-19T10:55:05;4.23;;;2.37;;
10659;SDS011;5378;53.206;13.316;2023-09-19T10:57:54;8.53;;;2.67;;
10659;SDS011;5378;53.206;13.316;2023-09-19T11:00:56;8.20;;;3.00;;
10659;SDS011;5378;53.206;13.316;2023-09-19T11:03:51;3.83;;;2.17;;
10659;SDS011;5378;53.206;13.316;2023-09-19T11:07:12;2.70;;;2.07;;
10659;SDS011;5378;53.206;13.316;2023-09-19T11:10:00;9.10;;;2.17;;
10659;SDS011;5378;53.206;13.316;2023-09-19T11:12:50;3.83;;;2.73;;
10659;SDS011;5378;53.206;13.316;2023-09-19T11:16:02;5.00;;;2.20;;
10659;SDS011;5378;53.206;13.316;2023-09-19T11:18:51;6.90;;;2.20;;
10659;SDS011;5378;53.206;13.316;2023-09-19T11:21:42;10.60;;;2.10;;
10659;SDS011;5378;53.206;13.316;2023-09-19T11:24:41;6.10;;;2.27;;
10659;SDS011;5378;53.206;13.316;2023-09-19T11:27:28;3.93;;;2.17;;
10659;SDS011;5378;53.206;13.316;2023-09-19T11:30:27;6.83;;;3.00;;
10659;SDS011;5378;53.206;13.316;2023-09-19T11:33:16;4.93;;;2.60;;
10659;SDS011;5378;53.206;13.316;2023-09-19T11:36:06;2.60;;;1.47;;
10659;SDS011;5378;53.206;13.316;2023-09-19T11:39:00;3.77;;;2.00;;
10659;SDS011;5378;53.206;13.316;2023-09-19T11:42:00;7.57;;;2.20;;
10659;SDS011;5378;53.206;13.316;2023-09-19T11:44:48;4.73;;;1.87;;
10659;SDS011;5378;53.206;13.316;2023-09-19T11:47:37;4.00;;;1.77;;
10659;SDS011;5378;53.206;13.316;2023-09-19T11:50:25;9.73;;;2.90;;
10659;SDS011;5378;53.206;13.316;2023-09-19T11:53:14;3.90;;;1.60;;
10659;SDS011;5378;53.206;13.316;2023-09-19T11:56:06;4.83;;;2.10;;
10659;SDS011;5378;53.206;13.316;2023-09-19T11:58:56;6.13;;;1.80;;
10659;SDS011;5378;53.206;13.316;2023-09-19T12:01:50;3.63;;;1.80;;
10659;SDS011;5378;53.206;13.316;2023-09-19T12:04:45;4.40;;;1.93;;
10659;SDS011;5378;53.206;13.316;2023-09-19T12:07:43;5.00;;;1.70;;
10659;SDS011;5378;53.206;13.316;2023-09-19T12:10:32;2.70;;;1.53;;
10659;SDS011;5378;53.206;13.316;2023-09-19T12:13:21;5.00;;;1.90;;
10659;SDS011;5378;53.206;13.316;2023-09-19T12:16:12;6.43;;;2.03;;
10659;SDS011;5378;53.206;13.316;2023-09-19T12:22:07;5.20;;;1.87;;
10659;SDS011;5378;53.206;13.316;2023-09-19T12:25:02;4.83;;;1.30;;
10659;SDS011;5378;53.206;13.316;2023-09-19T12:27:52;3.30;;;1.60;;
10659;SDS011;5378;53.206;13.316;2023-09-19T12:30:42;3.67;;;2.33;;
10659;SDS011;5378;53.206;13.316;2023-09-19T12:33:29;2.87;;;1.60;;
10659;SDS011;5378;53.206;13.316;2023-09-19T12:36:21;4.50;;;1.40;;
10659;SDS011;5378;53.206;13.316;2023-09-19T12:42:21;9.30;;;2.97;;
10659;SDS011;5378;53.206;13.316;2023-09-19T12:45:14;3.43;;;1.17;;
10659;SDS011;5378;53.206;13.316;2023-09-19T12:48:20;3.80;;;1.33;;
10659;SDS011;5378;53.206;13.316;2023-09-19T12:51:09;4.27;;;1.70;;
10659;SDS011;5378;53.206;13.316;2023-09-19T12:53:57;5.10;;;1.70;;
10659;SDS011;5378;53.206;13.316;2023-09-19T12:56:45;10.40;;;3.33;;
10659;SDS011;5378;53.206;13.316;2023-09-19T12:59:34;6.73;;;1.70;;
10659;SDS011;5378;53.206;13.316;2023-09-19T13:02:24;14.00;;;1.60;;
10659;SDS011;5378;53.206;13.316;2023-09-19T13:05:15;5.23;;;1.90;;
10659;SDS011;5378;53.206;13.316;2023-09-19T13:08:04;4.00;;;1.43;;
10659;SDS011;5378;53.206;13.316;2023-09-19T13:11:06;2.90;;;1.20;;
10659;SDS011;5378;53.206;13.316;2023-09-19T13:14:13;3.47;;;2.03;;
10659;SDS011;5378;53.206;13.316;2023-09-19T13:17:02;2.33;;;1.40;;
10659;SDS011;5378;53.206;13.316;2023-09-19T13:19:51;3.60;;;1.70;;
10659;SDS011;5378;53.206;13.316;2023-09-19T13:22:42;2.30;;;1.70;;
10659;SDS011;5378;53.206;13.316;2023-09-19T13:25:34;3.93;;;1.50;;
10659;SDS011;5378;53.206;13.316;2023-09-19T13:28:22;3.33;;;1.13;;
10659;SDS011;5378;53.206;13.316;2023-09-19T13:31:09;2.17;;;1.10;;
10659;SDS011;5378;53.206;13.316;2023-09-19T13:33:57;10.20;;;1.20;;
10659;SDS011;5378;53.206;13.316;2023-09-19T13:36:44;4.93;;;1.27;;
10659;SDS011;5378;53.206;13.316;2023-09-19T13:39:35;2.90;;;1.50;;
10659;SDS011;5378;53.206;13.316;2023-09-19T13:42:23;4.53;;;1.67;;
10659;SDS011;5378;53.206;13.316;2023-09-19T13:45:15;5.93;;;1.40;;
10659;SDS011;5378;53.206;13.316;2023-09-19T13:48:04;5.37;;;1.70;;
10659;SDS011;5378;53.206;13.316;2023-09-19T13:50:51;4.30;;;1.63;;
10659;SDS011;5378;53.206;13.316;2023-09-19T13:53:38;4.33;;;1.13;;
10659;SDS011;5378;53.206;13.316;2023-09-19T13:56:26;6.73;;;1.40;;
10659;SDS011;5378;53.206;13.316;2023-09-19T13:59:15;1.93;;;1.07;;
10659;SDS011;5378;53.206;13.316;2023-09-19T14:02:02;1.80;;;0.80;;
10659;SDS011;5378;53.206;13.316;2023-09-19T14:04:52;11.67;;;2.00;;
10659;SDS011;5378;53.206;13.316;2023-09-19T14:07:40;7.93;;;1.50;;
10659;SDS011;5378;53.206;13.316;2023-09-19T14:10:27;5.60;;;1.03;;
10659;SDS011;5378;53.206;13.316;2023-09-19T14:13:18;4.43;;;1.80;;
10659;SDS011;5378;53.206;13.316;2023-09-19T14:16:06;2.77;;;0.80;;
10659;SDS011;5378;53.206;13.316;2023-09-19T14:18:54;3.20;;;1.40;;
10659;SDS011;5378;53.206;13.316;2023-09-19T14:21:41;2.80;;;1.03;;
10659;SDS011;5378;53.206;13.316;2023-09-19T14:24:29;3.90;;;1.43;;
10659;SDS011;5378;53.206;13.316;2023-09-19T14:27:16;4.07;;;1.50;;
10659;SDS011;5378;53.206;13.316;2023-09-19T14:30:05;9.53;;;1.33;;
10659;SDS011;5378;53.206;13.316;2023-09-19T14:32:53;7.80;;;1.57;;
10659;SDS011;5378;53.206;13.316;2023-09-19T14:35:40;2.20;;;1.50;;
10659;SDS011;5378;53.206;13.316;2023-09-19T14:38:27;3.37;;;1.30;;
10659;SDS011;5378;53.206;13.316;2023-09-19T14:41:15;3.03;;;1.40;;
10659;SDS011;5378;53.206;13.316;2023-09-19T14:44:02;6.17;;;1.30;;
10659;SDS011;5378;53.206;13.316;2023-09-19T14:46:51;2.90;;;1.70;;
10659;SDS011;5378;53.206;13.316;2023-09-19T14:49:39;2.80;;;1.30;;
10659;SDS011;5378;53.206;13.316;2023-09-19T14:52:26;6.37;;;1.70;;
10659;SDS011;5378;53.206;13.316;2023-09-19T14:55:14;4.57;;;1.87;;
10659;SDS011;5378;53.206;13.316;2023-09-19T14:58:01;2.60;;;1.20;;
10659;SDS011;5378;53.206;13.316;2023-09-19T15:00:48;4.10;;;1.17;;
10659;SDS011;5378;53.206;13.316;2023-09-19T15:03:39;10.43;;;2.23;;
10659;SDS011;5378;53.206;13.316;2023-09-19T15:06:27;2.70;;;1.20;;
10659;SDS011;5378;53.206;13.316;2023-09-19T15:09:15;4.50;;;1.30;;
10659;SDS011;5378;53.206;13.316;2023-09-19T15:12:05;6.40;;;1.47;;
10659;SDS011;5378;53.206;13.316;2023-09-19T15:14:52;4.17;;;1.43;;
10659;SDS011;5378;53.206;13.316;2023-09-19T15:17:39;3.17;;;1.27;;
10659;SDS011;5378;53.206;13.316;2023-09-19T15:20:27;4.80;;;1.17;;
10659;SDS011;5378;53.206;13.316;2023-09-19T15:23:16;6.43;;;1.50;;
10659;SDS011;5378;53.206;13.316;2023-09-19T15:26:04;7.27;;;1.73;;
10659;SDS011;5378;53.206;13.316;2023-09-19T15:28:51;8.43;;;1.63;;
10659;SDS011;5378;53.206;13.316;2023-09-19T15:31:40;5.40;;;1.60;;
10659;SDS011;5378;53.206;13.316;2023-09-19T15:34:27;7.43;;;1.17;;
10659;SDS011;5378;53.206;13.316;2023-09-19T15:37:15;6.47;;;1.47;;
10659;SDS011;5378;53.206;13.316;2023-09-19T15:40:02;4.87;;;1.40;;
10659;SDS011;5378;53.206;13.316;2023-09-19T15:42:54;5.73;;;1.13;;
10659;SDS011;5378;53.206;13.316;2023-09-19T15:45:41;5.30;;;1.37;;
10659;SDS011;5378;53.206;13.316;2023-09-19T15:48:28;6.33;;;1.77;;
10659;SDS011;5378;53.206;13.316;2023-09-19T15:51:15;4.10;;;1.67;;
10659;SDS011;5378;53.206;13.316;2023-09-19T15:54:07;7.03;;;1.40;;
10659;SDS011;5378;53.206;13.316;2023-09-19T15:56:56;2.83;;;1.40;;
10659;SDS011;5378;53.206;13.316;2023-09-19T15:59:43;4.37;;;1.57;;
10659;SDS011;5378;53.206;13.316;2023-09-19T16:02:32;2.60;;;1.27;;
10659;SDS011;5378;53.206;13.316;2023-09-19T16:05:19;4.10;;;1.87;;
10659;SDS011;5378;53.206;13.316;2023-09-19T16:08:07;2.90;;;1.43;;
10659;SDS011;5378;53.206;13.316;2023-09-19T16:10:55;8.90;;;2.00;;
10659;SDS011;5378;53.206;13.316;2023-09-19T16:13:42;2.60;;;1.70;;
10659;SDS011;5378;53.206;13.316;2023-09-19T16:16:31;4.90;;;1.67;;
10659;SDS011;5378;53.206;13.316;2023-09-19T16:19:20;4.07;;;1.73;;
10659;SDS011;5378;53.206;13.316;2023-09-19T16:22:07;4.20;;;1.30;;
10659;SDS011;5378;53.206;13.316;2023-09-19T16:24:54;9.30;;;1.93;;
10659;SDS011;5378;53.206;13.316;2023-09-19T16:27:42;7.63;;;2.10;;
10659;SDS011;5378;53.206;13.316;2023-09-19T16:30:31;5.53;;;1.87;;
10659;SDS011;5378;53.206;13.316;2023-09-19T16:33:19;3.23;;;1.60;;
10659;SDS011;5378;53.206;13.316;2023-09-19T16:36:07;7.63;;;1.80;;
10659;SDS011;5378;53.206;13.316;2023-09-19T16:38:55;9.20;;;1.63;;
10659;SDS011;5378;53.206;13.316;2023-09-19T16:41:42;5.10;;;1.70;;
10659;SDS011;5378;53.206;13.316;2023-09-19T16:44:30;3.40;;;1.60;;
10659;SDS011;5378;53.206;13.316;2023-09-19T16:47:19;10.80;;;2.43;;
10659;SDS011;5378;53.206;13.316;2023-09-19T16:50:07;2.87;;;1.77;;
10659;SDS011;5378;53.206;13.316;2023-09-19T16:52:55;11.90;;;2.03;;
10659;SDS011;5378;53.206;13.316;2023-09-19T16:55:42;4.50;;;2.37;;
10659;SDS011;5378;53.206;13.316;2023-09-19T16:58:29;5.00;;;1.73;;
10659;SDS011;5378;53.206;13.316;2023-09-19T17:01:19;3.90;;;1.80;;
10659;SDS011;5378;53.206;13.316;2023-09-19T17:04:09;2.33;;;1.87;;
10659;SDS011;5378;53.206;13.316;2023-09-19T17:06:56;8.63;;;2.00;;
10659;SDS011;5378;53.206;13.316;2023-09-19T17:09:43;7.13;;;2.10;;
10659;SDS011;5378;53.206;13.316;2023-09-19T17:12:30;2.90;;;1.77;;
10659;SDS011;5378;53.206;13.316;2023-09-19T17:15:19;5.00;;;2.40;;